createdAt,value
2023-03-28T00:01:17.530Z,3.10
2023-03-28T00:03:52.569Z,3.00
2023-03-28T00:06:28.871Z,3.00
2023-03-28T00:09:05.383Z,3.10
2023-03-28T00:11:40.362Z,3.00
2023-03-28T00:14:15.376Z,3.00
2023-03-28T00:16:50.377Z,3.00
2023-03-28T00:19:25.223Z,3.00
2023-03-28T00:22:00.367Z,3.00
2023-03-28T00:24:38.778Z,3.00
2023-03-28T00:27:13.646Z,3.00
2023-03-28T00:29:48.543Z,3.00
2023-03-28T00:32:23.449Z,3.00
2023-03-28T00:34:58.427Z,2.90
2023-03-28T00:37:34.530Z,2.90
2023-03-28T00:40:10.442Z,2.90
2023-03-28T00:42:45.456Z,2.90
2023-03-28T00:45:21.627Z,2.90
2023-03-28T00:48:14.617Z,2.80
2023-03-28T00:50:51.401Z,2.80
2023-03-28T00:53:26.486Z,2.90
2023-03-28T00:56:08.838Z,2.90
2023-03-28T00:58:44.905Z,2.90
2023-03-28T01:01:20.647Z,2.90
2023-03-28T01:04:04.251Z,2.90
2023-03-28T01:06:46.439Z,2.90
2023-03-28T01:09:24.720Z,2.90
2023-03-28T01:12:01.684Z,2.90
2023-03-28T01:14:39.162Z,2.90
2023-03-28T01:17:16.041Z,2.90
2023-03-28T01:20:04.116Z,2.80
2023-03-28T01:23:23.415Z,2.80
2023-03-28T01:26:42.116Z,2.80
2023-03-28T01:30:08.548Z,2.80
2023-03-28T01:33:53.447Z,2.80
2023-03-28T01:36:46.726Z,2.80
2023-03-28T01:39:42.522Z,2.70
2023-03-28T01:42:34.827Z,2.70
2023-03-28T01:45:28.719Z,2.70
2023-03-28T01:48:42.366Z,2.70
2023-03-28T01:51:42.162Z,2.60
2023-03-28T01:54:34.260Z,2.60
2023-03-28T01:57:29.624Z,2.60
2023-03-28T02:00:23.585Z,2.50
2023-03-28T02:03:25.709Z,2.50
2023-03-28T02:06:08.990Z,2.50
2023-03-28T02:08:46.697Z,2.50
2023-03-28T02:11:33.833Z,2.50
2023-03-28T02:14:26.371Z,2.50
2023-03-28T02:17:29.022Z,2.40
2023-03-28T02:20:28.699Z,2.50
2023-03-28T02:23:19.584Z,2.50
2023-03-28T02:25:58.477Z,2.50
2023-03-28T02:28:56.896Z,2.50
2023-03-28T02:32:04.444Z,2.50
2023-03-28T02:34:39.405Z,2.50
2023-03-28T02:37:54.248Z,2.50
2023-03-28T02:41:10.194Z,2.50
2023-03-28T02:44:01.607Z,2.50
2023-03-28T02:47:13.964Z,2.50
2023-03-28T02:50:02.774Z,2.40
2023-03-28T02:52:58.573Z,1.70
2023-03-28T02:56:01.933Z,2.40
2023-03-28T02:59:03.813Z,2.30
2023-03-28T03:01:41.571Z,2.30
2023-03-28T03:04:17.368Z,2.30
2023-03-28T03:06:52.809Z,2.30
2023-03-28T03:09:28.348Z,2.30
2023-03-28T03:12:03.244Z,2.20
2023-03-28T03:14:39.005Z,2.30
2023-03-28T03:17:44.046Z,2.20
2023-03-28T03:20:19.470Z,2.30
2023-03-28T03:22:55.515Z,2.20
2023-03-28T03:25:31.395Z,2.20
2023-03-28T03:28:16.285Z,2.10
2023-03-28T03:30:53.342Z,2.10
2023-03-28T03:33:35.314Z,2.10
2023-03-28T03:36:13.251Z,2.20
2023-03-28T03:38:49.615Z,2.20
2023-03-28T03:41:29.533Z,2.20
2023-03-28T03:44:04.739Z,2.20
2023-03-28T03:46:40.483Z,2.20
2023-03-28T03:49:15.475Z,2.20
2023-03-28T03:51:51.301Z,2.20
2023-03-28T03:54:26.268Z,2.20
2023-03-28T03:57:02.828Z,2.20
2023-03-28T03:59:38.203Z,2.20
2023-03-28T04:02:13.436Z,2.20
2023-03-28T04:04:54.255Z,2.10
2023-03-28T04:07:36.168Z,2.10
2023-03-28T04:10:12.684Z,2.10
2023-03-28T04:12:47.691Z,2.00
2023-03-28T04:15:22.641Z,2.00
2023-03-28T04:18:29.821Z,2.00
2023-03-28T04:21:06.493Z,2.00
2023-03-28T04:23:48.787Z,2.00
2023-03-28T04:26:43.655Z,2.00
2023-03-28T04:29:25.419Z,2.00
2023-03-28T04:32:21.273Z,2.00
2023-03-28T04:35:10.132Z,1.90
2023-03-28T04:37:45.064Z,1.90
2023-03-28T04:40:21.633Z,1.80
2023-03-28T04:43:06.952Z,1.90
2023-03-28T04:45:45.304Z,1.80
2023-03-28T04:48:25.733Z,1.80
2023-03-28T04:51:00.900Z,1.80
2023-03-28T04:53:36.510Z,1.80
2023-03-28T04:56:40.838Z,1.80
2023-03-28T04:59:17.453Z,1.80
2023-03-28T05:01:53.441Z,1.80
2023-03-28T05:04:47.266Z,1.80
2023-03-28T05:07:22.627Z,1.80
2023-03-28T05:09:58.332Z,1.80
2023-03-28T05:12:40.437Z,1.80
2023-03-28T05:15:23.068Z,1.80
2023-03-28T05:18:11.970Z,1.80
2023-03-28T05:20:46.922Z,1.80
2023-03-28T05:23:21.834Z,1.70
2023-03-28T05:25:59.184Z,1.80
2023-03-28T05:28:38.059Z,1.70
2023-03-28T05:31:13.812Z,1.80
2023-03-28T05:33:48.853Z,1.80
2023-03-28T05:36:32.838Z,1.80
2023-03-28T05:39:08.311Z,1.80
2023-03-28T05:41:43.268Z,1.80
2023-03-28T05:44:19.616Z,1.80
2023-03-28T05:47:17.597Z,1.80
2023-03-28T05:49:54.821Z,1.80
2023-03-28T05:52:30.265Z,1.80
2023-03-28T05:55:06.941Z,1.80
2023-03-28T05:57:41.975Z,1.90
2023-03-28T06:00:18.677Z,1.90
2023-03-28T06:02:54.988Z,1.90
2023-03-28T06:05:39.789Z,1.90
2023-03-28T06:08:25.100Z,2.00
2023-03-28T06:11:02.358Z,2.00
2023-03-28T06:13:41.832Z,2.00
2023-03-28T06:16:18.753Z,2.00
2023-03-28T06:19:17.213Z,2.10
2023-03-28T06:21:58.101Z,2.10
2023-03-28T06:24:33.902Z,2.20
2023-03-28T06:27:09.242Z,2.30
2023-03-28T06:29:47.332Z,2.30
2023-03-28T06:32:22.479Z,2.40
2023-03-28T06:34:57.522Z,2.40
2023-03-28T06:37:32.729Z,2.50
2023-03-28T06:40:14.023Z,2.50
2023-03-28T06:42:48.991Z,2.60
2023-03-28T06:45:29.993Z,2.70
2023-03-28T06:48:11.910Z,2.70
2023-03-28T06:51:06.080Z,2.80
2023-03-28T06:53:41.571Z,2.80
2023-03-28T06:56:17.221Z,2.90
2023-03-28T06:58:52.157Z,2.90
2023-03-28T07:01:33.168Z,3.00
2023-03-28T07:04:13.978Z,3.10
2023-03-28T07:06:51.298Z,3.20
2023-03-28T07:09:26.299Z,3.20
2023-03-28T07:12:10.681Z,3.20
2023-03-28T07:14:46.938Z,3.40
2023-03-28T07:17:22.010Z,3.50
2023-03-28T07:19:57.326Z,3.50
2023-03-28T07:22:32.416Z,3.60
2023-03-28T07:25:08.311Z,3.60
2023-03-28T07:27:43.789Z,3.70
2023-03-28T07:30:19.017Z,3.80
2023-03-28T07:33:01.655Z,3.90
2023-03-28T07:35:43.034Z,3.90
2023-03-28T07:38:21.979Z,4.00
2023-03-28T07:41:01.406Z,4.00
2023-03-28T07:43:39.358Z,4.10
2023-03-28T07:46:16.188Z,4.20
2023-03-28T07:48:51.399Z,4.20
2023-03-28T07:51:26.626Z,4.30
2023-03-28T07:54:01.809Z,4.40
2023-03-28T07:56:37.312Z,4.40
2023-03-28T07:59:27.439Z,4.50
2023-03-28T08:02:02.784Z,4.50
2023-03-28T08:04:37.704Z,4.60
2023-03-28T08:07:15.853Z,4.60
2023-03-28T08:09:54.771Z,4.70
2023-03-28T08:12:35.364Z,4.70
2023-03-28T08:15:11.348Z,4.80
2023-03-28T08:17:46.406Z,4.90
2023-03-28T08:20:21.830Z,4.90
2023-03-28T08:23:09.461Z,5.00
2023-03-28T08:26:06.221Z,5.10
2023-03-28T08:28:41.845Z,5.10
2023-03-28T08:31:17.600Z,5.10
2023-03-28T08:33:58.919Z,5.10
2023-03-28T08:36:41.902Z,5.20
2023-03-28T08:39:29.060Z,5.20
2023-03-28T08:42:45.252Z,5.30
2023-03-28T08:45:44.426Z,5.30
2023-03-28T08:48:33.541Z,5.40
2023-03-28T08:51:35.504Z,5.50
2023-03-28T08:54:23.469Z,5.60
2023-03-28T08:57:03.186Z,5.70
2023-03-28T08:59:53.448Z,5.70
2023-03-28T09:02:30.028Z,5.80
2023-03-28T09:05:52.373Z,5.90
2023-03-28T09:08:56.381Z,5.90
2023-03-28T09:12:08.472Z,6.10
2023-03-28T09:15:28.793Z,6.20
2023-03-28T09:18:34.065Z,6.20
2023-03-28T09:21:32.289Z,6.20
2023-03-28T09:24:25.837Z,6.30
2023-03-28T09:27:37.846Z,6.50
2023-03-28T09:30:20.809Z,6.70
2023-03-28T09:32:59.745Z,6.90
2023-03-28T09:35:34.787Z,7.00
2023-03-28T09:38:21.864Z,7.10
2023-03-28T09:41:00.879Z,7.30
2023-03-28T09:43:53.977Z,7.50
2023-03-28T09:46:50.916Z,7.60
2023-03-28T09:49:39.168Z,7.50
2023-03-28T09:52:21.282Z,7.50
2023-03-28T09:54:56.385Z,7.40
2023-03-28T09:58:11.745Z,7.40
2023-03-28T10:01:31.766Z,7.50
2023-03-28T10:04:39.455Z,7.50
2023-03-28T10:07:45.600Z,7.40
2023-03-28T10:11:07.026Z,7.40
2023-03-28T10:13:47.329Z,7.40
2023-03-28T10:16:34.200Z,7.40
2023-03-28T10:19:14.183Z,7.50
2023-03-28T10:22:13.282Z,7.50
2023-03-28T10:24:54.662Z,7.60
2023-03-28T10:27:33.578Z,7.70
2023-03-28T10:30:30.411Z,7.80
2023-03-28T10:33:23.634Z,7.80
2023-03-28T10:36:32.885Z,7.80
2023-03-28T10:39:26.795Z,7.90
2023-03-28T10:42:27.586Z,7.90
2023-03-28T10:45:34.723Z,8.00
2023-03-28T10:48:22.682Z,8.10
2023-03-28T10:51:08.195Z,8.20
2023-03-28T10:54:11.584Z,8.30
2023-03-28T10:57:06.123Z,8.50
2023-03-28T11:00:12.321Z,8.70
2023-03-28T11:02:55.359Z,8.90
2023-03-28T11:06:06.252Z,9.10
2023-03-28T11:09:20.114Z,9.40
2023-03-28T11:12:51.189Z,9.60
2023-03-28T11:16:01.592Z,9.80
2023-03-28T11:19:17.923Z,10.00
2023-03-28T11:22:52.305Z,10.20
2023-03-28T11:26:00.580Z,10.10
2023-03-28T11:29:06.089Z,9.90
2023-03-28T11:32:08.753Z,9.90
2023-03-28T11:35:06.890Z,10.10
2023-03-28T11:38:03.380Z,10.10
2023-03-28T11:41:22.024Z,10.20
2023-03-28T11:44:23.659Z,10.30
2023-03-28T11:47:28.770Z,10.60
2023-03-28T11:50:53.777Z,10.90
2023-03-28T11:53:56.255Z,11.10
2023-03-28T11:56:48.927Z,11.20
2023-03-28T12:00:07.058Z,11.30
2023-03-28T12:03:02.027Z,11.40
2023-03-28T12:05:47.999Z,11.40
2023-03-28T12:08:54.940Z,11.50
2023-03-28T12:12:04.398Z,11.50
2023-03-28T12:15:17.177Z,11.70
2023-03-28T12:18:38.767Z,12.00
2023-03-28T12:21:33.981Z,12.30
2023-03-28T12:24:20.493Z,12.50
2023-03-28T12:27:47.348Z,12.90
2023-03-28T12:30:58.912Z,13.30
2023-03-28T12:34:01.083Z,13.70
2023-03-28T12:37:17.467Z,14.00
2023-03-28T12:40:15.567Z,14.40
2023-03-28T12:42:53.806Z,14.80
2023-03-28T12:45:38.678Z,15.20
2023-03-28T12:48:33.778Z,15.50
2023-03-28T12:51:18.953Z,15.60
2023-03-28T12:54:09.025Z,15.70
2023-03-28T12:57:02.973Z,15.60
2023-03-28T12:59:39.642Z,15.60
2023-03-28T13:02:36.020Z,15.20
2023-03-28T13:05:29.385Z,15.20
2023-03-28T13:08:42.725Z,15.10
2023-03-28T13:11:49.761Z,15.10
2023-03-28T13:14:42.640Z,15.00
2023-03-28T13:17:24.812Z,15.10
2023-03-28T13:20:09.356Z,15.30
2023-03-28T13:22:53.669Z,15.70
2023-03-28T13:25:37.811Z,15.90
2023-03-28T13:28:12.661Z,16.30
2023-03-28T13:31:03.822Z,16.50
2023-03-28T13:33:49.415Z,16.80
2023-03-28T13:36:33.390Z,17.20
2023-03-28T13:39:25.086Z,17.40
2023-03-28T13:42:00.902Z,17.60
2023-03-28T13:44:42.265Z,17.80
2023-03-28T13:47:32.867Z,17.90
2023-03-28T13:50:33.006Z,17.80
2023-03-28T13:53:08.068Z,17.90
2023-03-28T13:55:44.099Z,18.00
2023-03-28T13:58:19.197Z,18.10
2023-03-28T14:01:18.950Z,18.30
2023-03-28T14:03:55.274Z,18.50
2023-03-28T14:06:31.100Z,18.60
2023-03-28T14:09:06.184Z,18.60
2023-03-28T14:11:42.152Z,18.60
2023-03-28T14:14:34.568Z,18.60
2023-03-28T14:17:23.994Z,18.70
2023-03-28T14:20:05.317Z,18.90
2023-03-28T14:22:59.101Z,19.10
2023-03-28T14:25:37.550Z,19.40
2023-03-28T14:28:15.272Z,19.70
2023-03-28T14:30:50.205Z,20.00
2023-03-28T14:33:25.597Z,20.00
2023-03-28T14:36:03.904Z,20.20
2023-03-28T14:38:39.532Z,20.30
2023-03-28T14:41:25.640Z,20.40
2023-03-28T14:44:02.100Z,20.40
2023-03-28T14:46:37.056Z,20.10
2023-03-28T14:49:19.701Z,19.90
2023-03-28T14:52:03.373Z,19.90
2023-03-28T14:54:46.685Z,19.90
2023-03-28T14:57:21.775Z,20.20
2023-03-28T14:59:57.885Z,20.20
2023-03-28T15:02:41.282Z,20.30
2023-03-28T15:05:19.883Z,20.50
2023-03-28T15:08:01.063Z,20.60
2023-03-28T15:10:36.175Z,20.50
2023-03-28T15:13:23.341Z,20.30
2023-03-28T15:15:58.605Z,20.20
2023-03-28T15:18:44.300Z,20.10
2023-03-28T15:21:23.688Z,20.10
2023-03-28T15:24:01.462Z,20.10
2023-03-28T15:26:47.255Z,20.00
2023-03-28T15:29:25.392Z,20.00
2023-03-28T15:32:05.755Z,20.10
2023-03-28T15:34:55.444Z,20.20
2023-03-28T15:37:42.740Z,20.30
2023-03-28T15:40:29.175Z,20.40
2023-03-28T15:43:06.809Z,20.40
2023-03-28T15:45:43.397Z,20.50
2023-03-28T15:48:19.896Z,20.60
2023-03-28T15:50:56.335Z,20.60
2023-03-28T15:53:32.157Z,20.60
2023-03-28T15:56:23.779Z,20.70
2023-03-28T15:59:17.800Z,20.70
2023-03-28T16:02:22.498Z,20.60
2023-03-28T16:05:10.393Z,20.50
2023-03-28T16:07:48.259Z,20.40
2023-03-28T16:10:25.559Z,20.10
2023-03-28T16:13:19.166Z,19.90
2023-03-28T16:16:26.872Z,19.70
2023-03-28T16:19:28.353Z,19.70
2023-03-28T16:22:03.912Z,19.70
2023-03-28T16:24:38.788Z,19.60
2023-03-28T16:27:13.743Z,19.60
2023-03-28T16:29:48.986Z,19.60
2023-03-28T16:32:24.858Z,19.50
2023-03-28T16:34:59.759Z,19.20
2023-03-28T16:37:34.627Z,19.00
2023-03-28T16:40:10.525Z,18.70
2023-03-28T16:42:45.562Z,18.40
2023-03-28T16:45:20.839Z,18.10
2023-03-28T16:47:57.751Z,17.90
2023-03-28T16:50:33.148Z,17.80
2023-03-28T16:53:08.044Z,17.60
2023-03-28T16:55:43.287Z,17.40
2023-03-28T16:58:18.191Z,17.20
2023-03-28T17:00:55.863Z,17.00
2023-03-28T17:03:30.965Z,16.80
2023-03-28T17:06:09.161Z,16.50
2023-03-28T17:08:44.680Z,16.30
2023-03-28T17:11:20.897Z,16.00
2023-03-28T17:13:57.155Z,15.80
2023-03-28T17:16:32.253Z,15.60
2023-03-28T17:19:07.567Z,15.30
2023-03-28T17:21:43.396Z,15.10
2023-03-28T17:24:18.975Z,14.90
2023-03-28T17:26:54.089Z,14.70
2023-03-28T17:29:29.292Z,13.70
2023-03-28T17:32:04.662Z,14.20
2023-03-28T17:34:39.782Z,14.00
2023-03-28T17:37:14.793Z,13.90
2023-03-28T17:39:50.268Z,13.70
2023-03-28T17:42:25.427Z,13.50
2023-03-28T17:45:00.774Z,13.40
2023-03-28T17:47:35.862Z,13.20
2023-03-28T17:50:11.048Z,13.10
2023-03-28T17:52:45.952Z,13.00
2023-03-28T17:55:21.311Z,12.80
2023-03-28T17:57:56.717Z,12.70
2023-03-28T18:00:31.791Z,12.70
2023-03-28T18:03:07.388Z,12.60
2023-03-28T18:06:00.491Z,12.50
2023-03-28T18:08:36.346Z,12.40
2023-03-28T18:11:14.789Z,12.30
2023-03-28T18:13:52.590Z,12.20
2023-03-28T18:16:28.874Z,12.20
2023-03-28T18:19:06.734Z,12.10
2023-03-28T18:21:41.740Z,12.10
2023-03-28T18:24:16.996Z,12.00
2023-03-28T18:26:52.239Z,11.90
2023-03-28T18:29:27.277Z,11.80
2023-03-28T18:32:02.386Z,11.80
2023-03-28T18:34:37.650Z,12.40
2023-03-28T18:37:12.952Z,11.60
2023-03-28T18:39:47.905Z,11.60
2023-03-28T18:42:22.929Z,11.50
2023-03-28T18:45:00.969Z,11.40
2023-03-28T18:47:41.138Z,11.30
2023-03-28T18:50:16.275Z,11.30
2023-03-28T18:52:51.241Z,11.20
2023-03-28T18:55:26.272Z,11.10
2023-03-28T18:58:04.492Z,11.00
2023-03-28T19:00:40.710Z,10.90
2023-03-28T19:03:17.238Z,10.90
2023-03-28T19:06:00.901Z,10.90
2023-03-28T19:08:36.804Z,10.90
2023-03-28T19:11:16.682Z,10.90
2023-03-28T19:13:53.980Z,10.80
2023-03-28T19:16:29.647Z,10.80
2023-03-28T19:19:05.349Z,10.80
2023-03-28T19:21:40.453Z,10.80
2023-03-28T19:24:15.774Z,10.80
2023-03-28T19:26:52.432Z,10.80
2023-03-28T19:29:28.530Z,10.80
2023-03-28T19:32:03.667Z,10.80
2023-03-28T19:34:38.829Z,10.80
2023-03-28T19:37:14.015Z,10.80
2023-03-28T19:39:48.908Z,10.80
2023-03-28T19:42:23.816Z,10.70
2023-03-28T19:44:58.722Z,10.80
2023-03-28T19:47:33.693Z,10.70
2023-03-28T19:50:11.582Z,10.70
2023-03-28T19:52:47.013Z,10.60
2023-03-28T19:55:22.070Z,10.60
2023-03-28T19:57:58.301Z,10.60
2023-03-28T20:00:33.381Z,10.60
2023-03-28T20:03:08.841Z,10.60
2023-03-28T20:05:48.291Z,10.60
2023-03-28T20:08:23.172Z,10.50
2023-03-28T20:10:58.318Z,10.50
2023-03-28T20:13:33.232Z,10.40
2023-03-28T20:16:10.967Z,10.40
2023-03-28T20:18:46.363Z,10.30
2023-03-28T20:21:21.344Z,10.30
2023-03-28T20:23:58.537Z,10.20
2023-03-28T20:26:34.062Z,10.20
2023-03-28T20:29:13.604Z,10.20
2023-03-28T20:31:48.567Z,10.20
2023-03-28T20:34:23.526Z,10.20
2023-03-28T20:37:01.511Z,10.20
2023-03-28T20:39:37.023Z,10.10
2023-03-28T20:42:12.717Z,10.10
2023-03-28T20:44:48.878Z,10.10
2023-03-28T20:47:25.236Z,10.10
2023-03-28T20:50:05.551Z,10.10
2023-03-28T20:52:41.026Z,10.10
2023-03-28T20:55:16.033Z,10.10
2023-03-28T20:57:50.923Z,10.20
2023-03-28T21:00:30.093Z,10.20
2023-03-28T21:03:05.803Z,10.20
2023-03-28T21:05:43.647Z,10.20
2023-03-28T21:08:20.746Z,10.20
2023-03-28T21:10:56.130Z,10.20
2023-03-28T21:13:31.276Z,10.20
2023-03-28T21:16:07.283Z,10.10
2023-03-28T21:18:42.304Z,10.10
2023-03-28T21:21:19.968Z,10.10
2023-03-28T21:23:54.980Z,10.10
2023-03-28T21:26:30.021Z,10.00
2023-03-28T21:29:05.045Z,10.00
2023-03-28T21:31:40.043Z,10.00
2023-03-28T21:34:15.484Z,10.00
2023-03-28T21:36:50.375Z,10.00
2023-03-28T21:39:25.301Z,10.00
2023-03-28T21:42:00.222Z,10.00
2023-03-28T21:44:35.103Z,10.00
2023-03-28T21:47:10.396Z,10.00
2023-03-28T21:49:46.119Z,10.10
2023-03-28T21:52:21.384Z,10.00
2023-03-28T21:54:56.268Z,9.90
2023-03-28T21:57:33.460Z,9.90
2023-03-28T22:00:14.891Z,9.90
2023-03-28T22:02:50.455Z,10.00
2023-03-28T22:05:29.586Z,9.90
2023-03-28T22:08:05.158Z,10.00
2023-03-28T22:10:48.131Z,10.00
2023-03-28T22:13:23.990Z,10.00
2023-03-28T22:15:59.994Z,10.00
2023-03-28T22:18:38.770Z,10.00
2023-03-28T22:21:14.170Z,10.10
2023-03-28T22:23:49.212Z,10.00
2023-03-28T22:26:28.170Z,10.00
2023-03-28T22:29:03.100Z,10.00
2023-03-28T22:31:38.083Z,10.00
2023-03-28T22:34:15.339Z,10.00
2023-03-28T22:36:50.399Z,9.90
2023-03-28T22:39:25.278Z,9.90
2023-03-28T22:42:00.589Z,9.90
2023-03-28T22:44:36.428Z,9.80
2023-03-28T22:47:12.024Z,9.80
2023-03-28T22:49:46.964Z,9.80
2023-03-28T22:52:21.858Z,9.70
2023-03-28T22:54:56.862Z,9.70
2023-03-28T22:57:32.288Z,9.60
2023-03-28T23:00:09.334Z,9.50
2023-03-28T23:02:44.570Z,9.40
2023-03-28T23:05:20.331Z,9.30
2023-03-28T23:07:55.503Z,9.10
2023-03-28T23:10:31.990Z,9.00
2023-03-28T23:13:08.381Z,8.90
2023-03-28T23:15:43.760Z,8.90
2023-03-28T23:18:19.184Z,8.70
2023-03-28T23:20:54.309Z,8.70
2023-03-28T23:23:29.493Z,8.60
2023-03-28T23:26:04.749Z,8.70
2023-03-28T23:28:40.402Z,8.70
2023-03-28T23:31:15.364Z,8.60
2023-03-28T23:33:50.447Z,8.60
2023-03-28T23:36:26.189Z,8.60
2023-03-28T23:39:01.629Z,8.60
2023-03-28T23:41:36.982Z,8.60
2023-03-28T23:44:11.997Z,8.60
2023-03-28T23:46:49.710Z,8.60
2023-03-28T23:49:24.697Z,8.60
2023-03-28T23:51:59.934Z,8.60
2023-03-28T23:54:38.294Z,8.70
2023-03-28T23:57:13.571Z,8.70
2023-03-28T23:59:48.564Z,8.70
